Time;durP1;ratioP1;P1;durP2;ratioP2;P2;SDS_P1;SDS_P2;PMS_P1;PMS_P2;Temp;Humidity;BMP_temperature;BMP_pressure;BME280_temperature;BME280_humidity;BME280_pressure;Samples;Min_cycle;Max_cycle;Signal;HPM_P1;HPM_P2
2023/01/30 00:00:04;;;;;;;21.10;13.30;;;;;;;0.92;56.11;99159.10;231976;1193;139345;-70
2023/01/30 00:05:27;;;;;;;22.50;13.40;;;;;;;0.98;55.87;99147.97;230317;1194;140270;-70
2023/01/30 00:10:31;;;;;;;22.20;14.10;;;;;;;0.99;55.79;99136.60;232287;1193;139810;-69
2023/01/30 00:15:35;;;;;;;24.30;13.90;;;;;;;0.99;55.79;99123.33;231945;1194;138985;-70
2023/01/30 00:20:38;;;;;;;26.60;14.20;;;;;;;1.01;55.68;99109.48;233444;1194;138614;-70
2023/01/30 00:25:44;;;;;;;23.90;14.70;;;;;;;1.05;55.72;99099.60;232620;1194;138477;-72
2023/01/30 00:30:49;;;;;;;26.80;15.80;;;;;;;1.08;55.64;99088.52;233495;1193;138593;-70
2023/01/30 00:35:55;;;;;;;24.30;14.90;;;;;;;1.06;55.71;99071.11;231839;1194;139416;-70
2023/01/30 00:40:58;;;;;;;25.40;14.90;;;;;;;1.02;55.80;99059.67;233141;1194;138875;-69
2023/01/30 00:51:30;;;;;;;26.80;15.10;;;;;;;0.92;56.06;99036.33;234318;1193;139403;-70
2023/01/30 00:56:33;;;;;;;28.60;15.60;;;;;;;0.92;56.09;99022.33;233720;1192;139006;-71
2023/01/30 01:01:37;;;;;;;26.50;15.40;;;;;;;0.93;56.14;99013.23;235461;1193;139149;-70
2023/01/30 01:06:40;;;;;;;28.60;15.80;;;;;;;0.93;56.15;99006.08;233656;1193;138908;-70
2023/01/30 01:11:43;;;;;;;28.60;15.30;;;;;;;0.96;56.20;98993.44;234172;1193;138296;-70
2023/01/30 01:16:47;;;;;;;28.40;16.40;;;;;;;0.96;56.25;98983.31;232093;1192;139616;-70
2023/01/30 01:21:50;;;;;;;29.90;16.70;;;;;;;0.95;56.29;98973.52;233344;1193;138709;-71
2023/01/30 01:26:54;;;;;;;26.60;15.80;;;;;;;0.99;56.51;98965.95;234683;1193;138348;-71
2023/01/30 01:31:57;;;;;;;33.10;18.30;;;;;;;0.96;56.54;98953.08;232915;1193;139655;-70
2023/01/30 01:37:01;;;;;;;33.00;17.40;;;;;;;0.98;56.57;98946.74;232121;1193;139091;-72
2023/01/30 01:42:15;;;;;;;32.30;17.40;;;;;;;1.05;56.66;98934.19;231410;1192;138784;-69
2023/01/30 01:47:19;;;;;;;34.70;17.30;;;;;;;1.05;56.54;98911.12;233683;1193;139808;-70
2023/01/30 01:52:23;;;;;;;35.40;17.30;;;;;;;1.08;56.53;98901.44;232581;1193;138906;-71
2023/01/30 01:57:33;;;;;;;32.30;18.00;;;;;;;1.10;56.49;98899.29;233306;1193;138731;-70
2023/01/30 02:02:58;;;;;;;33.70;19.60;;;;;;;1.16;56.50;98891.09;234075;1192;139532;-71
2023/01/30 02:08:06;;;;;;;31.90;18.20;;;;;;;1.15;56.25;98882.73;234801;1192;138684;-71
2023/01/30 02:13:09;;;;;;;34.50;18.40;;;;;;;1.06;56.41;98864.09;233891;1193;138769;-71
2023/01/30 02:18:14;;;;;;;34.00;18.20;;;;;;;0.92;56.56;98855.73;232795;1193;138366;-70
2023/01/30 02:23:42;;;;;;;34.00;18.40;;;;;;;0.84;56.81;98850.51;235033;1193;138639;-71
2023/01/30 02:29:06;;;;;;;35.20;18.50;;;;;;;0.83;56.90;98839.39;234290;1196;138594;-70
2023/01/30 02:34:33;;;;;;;34.90;19.10;;;;;;;0.81;57.01;98841.70;231557;1193;139342;-72
2023/01/30 02:40:00;;;;;;;30.10;17.20;;;;;;;0.80;57.16;98837.37;234474;1193;138819;-71
2023/01/30 02:45:29;;;;;;;38.10;19.60;;;;;;;0.75;57.28;98829.63;233666;1193;138850;-72
2023/01/30 02:50:34;;;;;;;36.80;18.90;;;;;;;0.73;57.38;98811.35;233664;1193;138594;-72
2023/01/30 02:55:39;;;;;;;;;;;;;;;0.67;57.46;98806.45;234251;1192;139868;-71
2023/01/30 03:00:46;;;;;;;33.90;17.60;;;;;;;0.67;57.59;98799.30;234177;1193;125019;-71
2023/01/30 03:06:04;;;;;;;31.10;18.00;;;;;;;0.65;57.56;98794.80;232353;1197;138932;-73
2023/01/30 03:11:09;;;;;;;30.80;17.50;;;;;;;0.61;57.53;98786.88;233382;1193;138747;-70
2023/01/30 03:16:39;;;;;;;26.00;16.20;;;;;;;0.57;57.58;98782.26;233823;1193;138696;-71
2023/01/30 03:21:44;;;;;;;26.80;15.30;;;;;;;0.49;57.67;98784.38;234953;1193;138728;-71
2023/01/30 03:26:53;;;;;;;27.70;15.60;;;;;;;0.48;57.59;98773.26;233402;1193;138501;-70
2023/01/30 03:31:57;;;;;;;26.20;16.50;;;;;;;0.44;57.60;98759.73;230952;1196;139081;-70
2023/01/30 03:37:01;;;;;;;28.00;14.90;;;;;;;0.43;57.54;98760.28;233482;1196;138869;-70
2023/01/30 03:42:09;;;;;;;24.80;14.90;;;;;;;0.39;57.73;98754.27;230632;1197;138820;-72
2023/01/30 03:47:13;;;;;;;23.10;13.60;;;;;;;0.42;57.51;98739.55;232638;1193;138677;-70
2023/01/30 03:52:17;;;;;;;22.80;13.90;;;;;;;0.38;57.41;98735.11;231978;1193;139143;-70
2023/01/30 03:57:20;;;;;;;20.60;13.10;;;;;;;0.34;56.95;98729.61;232707;1193;138618;-70
2023/01/30 04:02:25;;;;;;;22.70;13.10;;;;;;;0.31;56.97;98710.33;231522;1194;138573;-70
2023/01/30 04:07:29;;;;;;;22.70;12.90;;;;;;;0.31;56.97;98703.55;231730;1193;139045;-72
2023/01/30 04:12:32;;;;;;;20.80;13.00;;;;;;;0.25;56.69;98705.80;232774;1193;139635;-71
2023/01/30 04:17:36;;;;;;;22.60;13.00;;;;;;;0.15;56.91;98695.40;232838;1193;139382;-71
2023/01/30 04:23:00;;;;;;;21.90;12.80;;;;;;;0.05;56.98;98689.04;234272;1193;138544;-71
2023/01/30 04:28:05;;;;;;;22.00;13.10;;;;;;;0.00;57.06;98686.02;232503;1197;138585;-70
2023/01/30 04:33:12;;;;;;;21.60;12.90;;;;;;;-0.05;57.02;98685.79;231207;1193;138708;-70
2023/01/30 04:38:15;;;;;;;17.90;11.20;;;;;;;-0.14;56.60;98675.39;233458;1193;138812;-71
2023/01/30 04:43:20;;;;;;;18.50;11.00;;;;;;;-0.24;56.35;98670.59;233348;1193;139128;-71
2023/01/30 04:48:27;;;;;;;19.60;11.20;;;;;;;-0.30;56.39;98661.11;231795;1193;139388;-70
2023/01/30 04:53:31;;;;;;;16.80;10.70;;;;;;;-0.30;55.98;98650.34;234121;1192;139407;-70
2023/01/30 04:58:35;;;;;;;17.20;10.70;;;;;;;-0.33;55.63;98636.10;234077;1193;139098;-70
2023/01/30 05:03:38;;;;;;;22.60;11.60;;;;;;;-0.30;55.52;98638.47;231576;1195;138808;-70
2023/01/30 05:08:41;;;;;;;22.30;11.50;;;;;;;-0.27;55.58;98642.77;233884;1193;139011;-69
2023/01/30 05:13:48;;;;;;;18.10;11.00;;;;;;;-0.26;55.39;98645.70;235052;1197;139052;-69
2023/01/30 05:18:52;;;;;;;17.10;10.90;;;;;;;-0.24;55.35;98646.52;233060;1193;139039;-70
2023/01/30 05:23:56;;;;;;;17.70;9.30;;;;;;;-0.21;55.33;98637.92;232183;1194;139119;-72
2023/01/30 05:28:59;;;;;;;14.40;8.30;;;;;;;-0.18;54.40;98629.81;233102;1193;139052;-71
2023/01/30 05:34:03;;;;;;;17.40;10.30;;;;;;;-0.19;54.06;98598.47;234274;1196;138811;-70
2023/01/30 05:39:07;;;;;;;15.40;9.00;;;;;;;-0.16;54.12;98591.24;233236;1193;138588;-70
2023/01/30 05:44:10;;;;;;;15.40;9.90;;;;;;;-0.14;53.90;98584.55;234619;1194;138454;-73
2023/01/30 05:49:21;;;;;;;15.80;10.00;;;;;;;-0.10;53.70;98587.77;233486;1193;138886;-70
2023/01/30 05:54:24;;;;;;;17.60;10.30;;;;;;;-0.03;53.48;98586.35;233496;1193;138661;-71
2023/01/30 05:59:28;;;;;;;20.90;11.50;;;;;;;-0.01;53.11;98579.67;232967;1194;140180;-71
2023/01/30 06:04:31;;;;;;;19.70;10.10;;;;;;;0.05;52.84;98571.85;234074;1193;139827;-70
2023/01/30 06:09:34;;;;;;;21.20;11.50;;;;;;;0.08;52.72;98552.06;233999;1193;139508;-70
2023/01/30 06:14:38;;;;;;;17.70;11.90;;;;;;;0.10;52.31;98556.36;234003;1194;138594;-73
2023/01/30 06:19:41;;;;;;;19.90;11.50;;;;;;;0.13;52.48;98551.91;231088;1193;139940;-70
2023/01/30 06:24:44;;;;;;;23.60;12.30;;;;;;;0.12;52.39;98554.38;232867;1192;140321;-71
2023/01/30 06:29:48;;;;;;;21.70;11.80;;;;;;;0.13;52.46;98529.05;233277;1193;139733;-71
2023/01/30 06:34:51;;;;;;;20.30;12.30;;;;;;;0.17;52.47;98509.77;233298;1193;138618;-71
2023/01/30 06:39:54;;;;;;;31.60;13.50;;;;;;;0.23;52.65;98498.59;233500;1193;138903;-71
2023/01/30 06:44:58;;;;;;;21.70;14.00;;;;;;;0.24;52.85;98500.31;234659;1195;139314;-71
2023/01/30 06:50:01;;;;;;;21.10;13.40;;;;;;;0.29;52.99;98491.45;233490;1194;138768;-72
2023/01/30 06:55:05;;;;;;;24.20;13.20;;;;;;;0.35;52.98;98496.35;234637;1193;139863;-72
2023/01/30 07:00:15;;;;;;;24.90;14.60;;;;;;;0.37;52.98;98481.44;234583;1193;138728;-72
2023/01/30 07:05:18;;;;;;;24.70;13.40;;;;;;;0.36;53.30;98463.48;234299;1197;139222;-70
2023/01/30 07:10:22;;;;;;;25.70;13.20;;;;;;;0.42;53.17;98463.50;235215;1196;138578;-70
2023/01/30 07:15:26;;;;;;;26.10;13.50;;;;;;;0.50;52.98;98436.55;233805;1192;139412;-71
2023/01/30 07:20:30;;;;;;;24.20;13.30;;;;;;;0.59;52.70;98432.95;235222;1194;139001;-71
2023/01/30 07:25:33;;;;;;;20.10;12.50;;;;;;;0.68;52.55;98425.68;233332;1197;139594;-71
2023/01/30 07:30:37;;;;;;;22.20;12.70;;;;;;;0.73;52.13;98427.42;232439;1197;139492;-72
2023/01/30 07:35:40;;;;;;;23.70;12.40;;;;;;;0.80;52.13;98426.69;235205;1193;139101;-70
2023/01/30 07:40:44;;;;;;;25.00;12.60;;;;;;;0.88;51.88;98430.11;235103;1193;138358;-71
2023/01/30 07:45:48;;;;;;;21.10;11.90;;;;;;;0.89;51.58;98442.46;235212;1194;138323;-75
2023/01/30 07:50:55;;;;;;;23.80;12.40;;;;;;;0.91;51.40;98445.70;232612;1193;138975;-69
2023/01/30 07:55:59;;;;;;;26.40;13.30;;;;;;;0.91;51.66;98440.63;232376;1197;138676;-70
2023/01/30 08:01:03;;;;;;;19.00;11.50;;;;;;;0.98;51.47;98422.41;234196;1194;138594;-71
2023/01/30 08:06:07;;;;;;;21.80;11.80;;;;;;;1.05;51.09;98411.73;235068;1193;138658;-70
2023/01/30 08:11:10;;;;;;;20.60;11.60;;;;;;;1.07;50.68;98417.42;234145;1193;138803;-69
2023/01/30 08:16:14;;;;;;;19.20;11.50;;;;;;;1.12;50.69;98402.92;235075;1193;138526;-70
2023/01/30 08:21:18;;;;;;;24.30;12.20;;;;;;;1.15;50.68;98395.27;233788;1193;139486;-70
2023/01/30 08:26:22;;;;;;;21.10;11.30;;;;;;;1.17;50.69;98375.84;231993;1197;138334;-71
2023/01/30 08:31:26;;;;;;;17.30;10.40;;;;;;;1.24;50.59;98386.11;233867;1193;138889;-70
2023/01/30 08:36:31;;;;;;;20.30;9.80;;;;;;;1.26;50.65;98372.73;233519;1194;138439;-69
2023/01/30 08:41:35;;;;;;;17.60;10.00;;;;;;;1.35;50.31;98354.75;233943;1193;139118;-71
2023/01/30 08:46:39;;;;;;;14.80;9.40;;;;;;;1.47;50.21;98342.63;235674;1192;138002;-70
2023/01/30 08:51:43;;;;;;;15.20;10.10;;;;;;;1.55;50.16;98341.11;232968;1196;138678;-70
2023/01/30 08:56:50;;;;;;;19.10;9.90;;;;;;;1.66;50.02;98345.44;232766;1193;138843;-72
2023/01/30 09:01:56;;;;;;;15.30;10.10;;;;;;;1.72;49.69;98335.40;232494;1193;138406;-71
2023/01/30 09:06:59;;;;;;;15.40;9.20;;;;;;;1.76;49.70;98318.67;233874;1193;138956;-71
2023/01/30 09:12:03;;;;;;;15.00;10.10;;;;;;;1.80;49.90;98307.83;233912;1193;138323;-71
2023/01/30 09:17:06;;;;;;;19.00;10.40;;;;;;;1.83;50.25;98308.23;235109;1193;139796;-72
2023/01/30 09:22:09;;;;;;;16.20;9.80;;;;;;;1.83;50.77;98302.63;232640;1193;138562;-70
2023/01/30 09:27:13;;;;;;;15.90;9.10;;;;;;;1.87;51.39;98292.31;231853;1193;138510;-71
2023/01/30 09:32:17;;;;;;;13.90;9.20;;;;;;;1.95;51.52;98288.88;232176;1192;138324;-70
2023/01/30 09:37:21;;;;;;;19.50;9.80;;;;;;;2.05;51.75;98279.05;232272;1193;138692;-71
2023/01/30 09:42:57;;;;;;;15.10;9.20;;;;;;;2.10;51.70;98277.05;233110;1197;138525;-70
2023/01/30 09:48:28;;;;;;;16.40;9.40;;;;;;;2.07;51.83;98263.54;233554;1195;138334;-71
2023/01/30 09:53:41;;;;;;;14.20;9.10;;;;;;;2.05;52.35;98246.13;235293;1192;138381;-71
2023/01/30 09:58:51;;;;;;;22.70;9.90;;;;;;;2.05;52.80;98244.05;232963;1193;138452;-71
2023/01/30 10:04:17;;;;;;;15.20;9.40;;;;;;;2.07;53.01;98236.23;230815;1196;138474;-70
2023/01/30 10:09:40;;;;;;;15.60;9.60;;;;;;;2.08;53.28;98229.20;233073;1193;138437;-72
2023/01/30 10:15:04;;;;;;;15.10;9.50;;;;;;;2.11;53.85;98211.41;231681;1197;139281;-74
2023/01/30 10:20:31;;;;;;;15.10;9.10;;;;;;;2.12;54.46;98197.04;234562;1193;138728;-76
2023/01/30 10:25:38;;;;;;;14.40;8.90;;;;;;;2.13;54.92;98173.20;232764;1193;138369;-74
2023/01/30 10:30:45;;;;;;;15.60;9.60;;;;;;;2.16;55.04;98161.34;231297;1197;139828;-73
2023/01/30 10:36:07;;;;;;;16.40;9.20;;;;;;;2.25;55.19;98157.31;234279;1198;138357;-74
2023/01/30 10:41:18;;;;;;;14.00;9.10;;;;;;;2.32;55.36;98146.87;233501;1193;138643;-72
2023/01/30 10:46:47;;;;;;;17.00;9.10;;;;;;;2.40;55.86;98136.34;231995;1194;138696;-72
2023/01/30 10:52:11;;;;;;;16.20;9.80;;;;;;;2.48;56.02;98128.13;231652;1198;138235;-73
2023/01/30 10:57:16;;;;;;;14.60;9.00;;;;;;;2.53;56.37;98140.86;233469;1192;139126;-73
2023/01/30 11:02:29;;;;;;;17.30;9.70;;;;;;;2.50;56.69;98131.36;233239;1196;138475;-81
2023/01/30 11:07:34;;;;;;;12.80;8.50;;;;;;;2.44;57.09;98130.76;234748;1196;138483;-81
2023/01/30 11:12:38;;;;;;;15.50;9.50;;;;;;;2.35;58.19;98119.60;233020;1196;138682;-84
2023/01/30 11:17:47;;;;;;;14.40;9.90;;;;;;;2.31;59.15;98117.67;233837;1197;138548;-83
2023/01/30 11:23:26;;;;;;;15.30;10.30;;;;;;;2.27;60.08;98102.26;230852;1194;138358;-82
2023/01/30 11:28:39;;;;;;;17.00;11.10;;;;;;;2.19;61.29;98099.63;234404;1197;138778;-80
2023/01/30 11:34:00;;;;;;;16.20;10.40;;;;;;;2.08;62.71;98106.08;234856;1193;139634;-84
2023/01/30 11:39:14;;;;;;;14.30;9.80;;;;;;;1.97;63.56;98091.84;234355;1196;139638;-82
2023/01/30 11:44:27;;;;;;;14.90;11.00;;;;;;;1.95;63.63;98082.31;234375;1193;139449;-80
2023/01/30 11:49:42;;;;;;;16.60;11.30;;;;;;;1.96;64.17;98071.23;233656;1193;139385;-82
2023/01/30 11:55:12;;;;;;;20.00;11.80;;;;;;;1.94;64.68;98062.60;234575;1193;139727;-82
2023/01/30 12:00:21;;;;;;;18.40;12.10;;;;;;;1.93;64.82;98057.92;231774;1196;139281;-82
2023/01/30 12:05:36;;;;;;;16.30;11.00;;;;;;;1.96;65.07;98055.49;231294;1199;139270;-82
2023/01/30 12:10:44;;;;;;;17.00;10.40;;;;;;;2.07;65.43;98049.25;232899;1197;139379;-82
2023/01/30 12:16:05;;;;;;;16.00;10.40;;;;;;;2.20;65.41;98041.69;231847;1193;139244;-82
2023/01/30 12:21:26;;;;;;;13.80;9.40;;;;;;;2.33;65.51;98031.31;230501;1196;138818;-82
2023/01/30 12:26:49;;;;;;;13.90;9.70;;;;;;;2.42;65.42;98024.06;231506;1193;138513;-75
2023/01/30 12:32:08;;;;;;;13.40;9.30;;;;;;;2.48;65.41;98020.10;232558;1197;138355;-84
2023/01/30 12:37:18;;;;;;;12.70;8.50;;;;;;;2.53;65.28;98018.30;232775;1197;138677;-81
2023/01/30 12:42:55;;;;;;;11.50;8.20;;;;;;;2.55;65.33;98018.39;231856;1196;139223;-80
2023/01/30 12:48:22;;;;;;;13.60;9.20;;;;;;;2.62;65.66;98011.05;231617;1196;139217;-81
2023/01/30 12:53:54;;;;;;;13.70;9.70;;;;;;;2.75;65.48;98008.52;232691;1193;138231;-81
2023/01/30 12:59:17;;;;;;;15.90;9.90;;;;;;;2.82;65.38;98003.98;233676;1192;138536;-85
2023/01/30 13:05:01;;;;;;;16.20;9.90;;;;;;;2.85;65.56;97998.41;231740;1197;139831;-77
2023/01/30 13:10:22;;;;;;;16.00;9.70;;;;;;;2.85;65.77;97997.54;231523;1198;140129;-81
2023/01/30 13:15:30;;;;;;;15.10;9.70;;;;;;;2.76;66.15;97986.75;233962;1192;138667;-79
2023/01/30 13:20:59;;;;;;;13.90;8.50;;;;;;;2.74;66.75;97991.61;231344;1196;138962;-80
2023/01/30 13:26:14;;;;;;;13.60;8.80;;;;;;;2.80;66.86;97993.04;231491;1192;139023;-80
2023/01/30 13:31:22;;;;;;;;;;;;;;;2.81;67.11;97970.41;231187;1194;138561;-79
2023/01/30 13:36:51;;;;;;;15.40;9.10;;;;;;;2.87;67.11;97978.58;233457;1192;124723;-74
2023/01/30 13:41:58;;;;;;;12.30;8.60;;;;;;;3.37;74.98;97975.20;233939;1195;139627;-71
2023/01/30 13:47:21;;;;;;;12.80;8.70;;;;;;;3.45;67.97;97970.95;232960;1192;139687;-75
2023/01/30 13:52:25;;;;;;;12.80;8.90;;;;;;;3.28;67.31;97972.15;231436;1197;100531;-71
2023/01/30 13:57:40;;;;;;;11.80;8.10;;;;;;;3.21;67.14;97973.88;232768;1196;138893;-77
2023/01/30 14:03:03;;;;;;;14.40;9.60;;;;;;;3.12;67.18;97971.38;231213;1196;138659;-73
2023/01/30 14:08:20;;;;;;;18.80;9.60;;;;;;;3.04;67.08;97965.94;232971;1192;138476;-73
2023/01/30 14:13:27;;;;;;;10.90;7.70;;;;;;;3.02;67.54;97967.66;232267;1192;138549;-73
2023/01/30 14:18:39;;;;;;;12.50;8.60;;;;;;;3.00;67.55;97978.27;232402;1197;140553;-73
2023/01/30 14:23:57;;;;;;;12.30;8.20;;;;;;;2.99;68.01;97972.14;231884;1194;138684;-73
2023/01/30 14:29:02;;;;;;;13.30;9.20;;;;;;;3.06;67.84;97964.46;231875;1193;138666;-72
2023/01/30 14:34:39;;;;;;;13.30;9.00;;;;;;;3.09;68.04;97960.11;231544;1193;138278;-71
2023/01/30 14:39:50;;;;;;;14.80;9.70;;;;;;;3.14;67.44;97961.83;233613;1193;138580;-71
2023/01/30 14:44:59;;;;;;;15.20;9.70;;;;;;;3.15;67.53;97963.00;230568;1193;139094;-70
2023/01/30 14:50:17;;;;;;;14.70;9.30;;;;;;;3.11;67.17;97963.69;233458;1192;139996;-71
2023/01/30 14:55:28;;;;;;;14.90;8.50;;;;;;;3.10;67.03;97966.91;232852;1193;138872;-69
2023/01/30 15:00:36;;;;;;;13.30;9.00;;;;;;;3.17;66.67;97966.55;233204;1193;140122;-67
2023/01/30 15:05:44;;;;;;;14.60;9.30;;;;;;;3.24;66.13;97968.13;233400;1193;138754;-69
2023/01/30 15:11:03;;;;;;;13.60;8.40;;;;;;;3.27;65.68;97982.03;232704;1193;138953;-67
2023/01/30 15:16:37;;;;;;;15.10;8.90;;;;;;;3.30;65.08;97982.58;232234;1193;139903;-68
2023/01/30 15:22:12;;;;;;;14.00;8.70;;;;;;;3.33;64.88;97985.39;232886;1193;138797;-68
2023/01/30 15:27:30;;;;;;;10.60;7.10;;;;;;;3.39;64.45;97989.48;230534;1193;138936;-68
2023/01/30 15:32:35;;;;;;;13.60;7.90;;;;;;;3.46;64.41;97986.34;230935;1193;139280;-70
2023/01/30 15:37:45;;;;;;;11.40;7.40;;;;;;;3.50;63.92;97990.52;232196;1194;138347;-70
2023/01/30 15:42:56;;;;;;;11.30;7.40;;;;;;;3.50;63.87;97989.65;233187;1194;138611;-69
2023/01/30 15:48:33;;;;;;;12.90;7.70;;;;;;;3.51;63.67;97991.71;233690;1193;138740;-69
2023/01/30 15:53:43;;;;;;;10.60;7.40;;;;;;;3.50;64.09;97996.82;230450;1197;138445;-70
2023/01/30 15:58:48;;;;;;;11.50;7.30;;;;;;;3.50;64.41;97999.63;232931;1192;139233;-69
2023/01/30 16:03:53;;;;;;;12.60;8.10;;;;;;;3.54;64.30;97999.08;233348;1193;139539;-69
2023/01/30 16:09:04;;;;;;;12.10;7.70;;;;;;;3.62;64.22;98006.41;231184;1196;138666;-70
2023/01/30 16:14:17;;;;;;;13.80;7.70;;;;;;;3.62;64.32;98021.66;232002;1196;138732;-71
2023/01/30 16:19:28;;;;;;;11.80;7.80;;;;;;;3.61;64.59;98021.52;230982;1193;138357;-70
2023/01/30 16:24:35;;;;;;;11.30;8.10;;;;;;;3.62;64.55;98023.42;231450;1193;138409;-70
2023/01/30 16:29:50;;;;;;;13.80;8.10;;;;;;;3.61;64.98;98029.27;232202;1193;138895;-70
2023/01/30 16:35:15;;;;;;;14.60;8.80;;;;;;;3.54;64.92;98045.20;232954;1193;138380;-70
2023/01/30 16:40:22;;;;;;;14.50;8.70;;;;;;;3.53;65.21;98047.85;231132;1196;139285;-68
2023/01/30 16:45:36;;;;;;;11.80;8.10;;;;;;;3.53;65.25;98050.48;231982;1193;138813;-70
2023/01/30 16:50:41;;;;;;;12.70;8.20;;;;;;;3.57;65.16;98048.39;232438;1193;139421;-69
2023/01/30 16:56:08;;;;;;;14.70;8.20;;;;;;;3.61;64.97;98043.10;231549;1193;139101;-69
2023/01/30 17:01:12;;;;;;;12.40;7.50;;;;;;;3.62;65.13;98042.17;233118;1193;138576;-70
2023/01/30 17:06:38;;;;;;;12.80;8.70;;;;;;;3.60;65.18;98041.56;231527;1196;140484;-70
2023/01/30 17:11:42;;;;;;;12.90;7.80;;;;;;;3.61;65.49;98044.54;231586;1196;138795;-70
2023/01/30 17:17:07;;;;;;;12.30;7.60;;;;;;;3.58;65.08;98045.89;234448;1193;138245;-69
2023/01/30 17:22:23;;;;;;;12.10;7.30;;;;;;;3.62;64.91;98042.02;232425;1193;138838;-70
2023/01/30 17:27:28;;;;;;;15.40;8.30;;;;;;;3.61;64.92;98041.35;233859;1196;138928;-73
2023/01/30 17:32:33;;;;;;;12.80;8.40;;;;;;;3.64;64.68;98040.32;231148;1193;139367;-73
2023/01/30 17:37:38;;;;;;;13.20;7.40;;;;;;;3.71;64.50;98045.90;233121;1193;138331;-69
2023/01/30 17:42:43;;;;;;;14.50;8.20;;;;;;;3.76;64.18;98048.96;232259;1193;139061;-72
2023/01/30 17:47:49;;;;;;;11.60;7.80;;;;;;;3.83;64.07;98044.98;232835;1192;139000;-69
2023/01/30 17:52:53;;;;;;;12.20;7.90;;;;;;;3.86;63.77;98042.35;231428;1196;139187;-69
2023/01/30 17:57:59;;;;;;;12.50;8.10;;;;;;;3.88;63.64;98042.78;230807;1196;139878;-70
2023/01/30 18:03:04;;;;;;;11.50;7.10;;;;;;;3.88;63.42;98034.72;232643;1192;138256;-69
2023/01/30 18:08:08;;;;;;;11.10;7.50;;;;;;;3.91;63.19;98036.83;231223;1193;138416;-71
2023/01/30 18:13:12;;;;;;;10.50;6.80;;;;;;;3.95;63.04;98023.84;233838;1193;138747;-70
2023/01/30 18:18:17;;;;;;;12.50;7.30;;;;;;;3.96;63.15;98017.97;232621;1193;138284;-71
2023/01/30 18:23:20;;;;;;;11.60;7.30;;;;;;;3.91;63.16;98021.94;234162;1192;138651;-72
2023/01/30 18:28:24;;;;;;;12.90;7.60;;;;;;;3.91;63.17;98026.81;233884;1193;138360;-71
2023/01/30 18:33:31;;;;;;;12.10;6.50;;;;;;;3.92;63.13;98024.30;230874;1193;138160;-72
2023/01/30 18:38:35;;;;;;;;;;;;;;;3.96;63.06;98030.80;233452;1193;138878;-71
2023/01/30 18:43:38;;;;;;;10.60;6.10;;;;;;;4.04;63.47;98034.43;234851;1193;125304;-71
2023/01/30 18:48:43;;;;;;;11.00;7.10;;;;;;;3.97;63.86;98030.54;231906;1197;139223;-71
2023/01/30 18:53:49;;;;;;;10.00;6.50;;;;;;;3.96;64.22;98028.68;232896;1192;138657;-71
2023/01/30 18:58:55;;;;;;;12.60;6.70;;;;;;;3.94;64.38;98025.83;233340;1196;138672;-70
2023/01/30 19:04:00;;;;;;;8.50;4.70;;;;;;;3.93;64.22;98024.27;233433;1193;138934;-70
2023/01/30 19:09:05;;;;;;;10.60;6.00;;;;;;;3.89;64.27;98031.65;232899;1193;138514;-73
2023/01/30 19:14:19;;;;;;;9.70;5.40;;;;;;;3.87;64.65;98034.38;233085;1193;140722;-73
2023/01/30 19:19:22;;;;;;;8.00;5.40;;;;;;;3.94;64.54;98040.02;235253;1193;138519;-70
2023/01/30 19:24:26;;;;;;;8.40;5.20;;;;;;;4.02;64.66;98041.52;234338;1193;138459;-70
2023/01/30 19:29:30;;;;;;;9.40;5.70;;;;;;;4.08;64.60;98043.50;234115;1193;138047;-70
2023/01/30 19:34:33;;;;;;;8.80;5.80;;;;;;;4.06;64.61;98030.10;232068;1196;138357;-70
2023/01/30 19:39:37;;;;;;;9.30;5.40;;;;;;;4.08;64.33;98038.27;231028;1196;138177;-71
2023/01/30 19:44:41;;;;;;;11.30;6.20;;;;;;;4.10;64.31;98045.52;233055;1194;138938;-72
2023/01/30 19:49:44;;;;;;;11.50;6.20;;;;;;;4.10;64.01;98046.56;235225;1193;138743;-71
2023/01/30 19:54:48;;;;;;;10.60;6.40;;;;;;;4.14;64.27;98047.94;234672;1193;138940;-69
2023/01/30 19:59:51;;;;;;;11.90;6.70;;;;;;;4.15;63.77;98037.88;233376;1193;138327;-71
2023/01/30 20:04:55;;;;;;;13.30;6.30;;;;;;;4.15;63.96;98047.36;234490;1194;138828;-71
2023/01/30 20:09:59;;;;;;;11.80;7.30;;;;;;;4.17;64.05;98047.08;234160;1194;138432;-70
2023/01/30 20:15:04;;;;;;;11.90;6.50;;;;;;;4.24;63.52;98048.29;231017;1194;138922;-70
2023/01/30 20:20:09;;;;;;;10.10;6.10;;;;;;;4.29;63.69;98051.39;233108;1194;138861;-69
2023/01/30 20:26:25;;;;;;;12.20;6.80;;;;;;;4.35;63.70;98051.07;232894;1193;138474;-70
2023/01/30 20:31:29;;;;;;;10.80;6.30;;;;;;;4.43;63.17;98053.07;233906;1193;138807;-70
2023/01/30 20:36:33;;;;;;;12.60;6.50;;;;;;;4.40;63.47;98056.75;233949;1193;139146;-69
2023/01/30 20:41:37;;;;;;;11.30;6.10;;;;;;;4.37;63.67;98054.43;231652;1195;138836;-71
2023/01/30 20:46:43;;;;;;;13.90;6.80;;;;;;;4.37;64.13;98061.86;233024;1193;138519;-71
2023/01/30 20:51:49;;;;;;;15.20;6.50;;;;;;;4.33;64.37;98063.97;232630;1195;138574;-70
2023/01/30 20:56:53;;;;;;;11.20;6.10;;;;;;;4.36;64.19;98066.80;234517;1193;138339;-70
2023/01/30 21:01:56;;;;;;;11.70;5.80;;;;;;;4.31;65.12;98069.00;233027;1193;138254;-70
2023/01/30 21:06:59;;;;;;;9.80;5.40;;;;;;;4.25;66.08;98068.77;230981;1196;139306;-71
2023/01/30 21:12:04;;;;;;;9.40;5.40;;;;;;;4.17;66.74;98072.34;231304;1194;139447;-71
2023/01/30 21:17:07;;;;;;;11.70;6.20;;;;;;;4.19;66.90;98073.13;232051;1196;138801;-72
2023/01/30 21:22:11;;;;;;;9.70;5.00;;;;;;;4.18;67.44;98082.83;233409;1192;138173;-71
2023/01/30 21:27:14;;;;;;;11.10;5.70;;;;;;;4.16;67.58;98087.70;234091;1193;138198;-71
2023/01/30 21:32:17;;;;;;;8.70;5.40;;;;;;;4.13;68.24;98084.86;232334;1193;138816;-71
2023/01/30 21:48:05;;;;;;;10.50;5.20;;;;;;;4.07;68.56;98115.20;232965;1193;140244;-71
2023/01/30 21:53:08;;;;;;;8.80;5.50;;;;;;;4.17;68.95;98116.60;232395;1194;140468;-70
2023/01/30 21:58:12;;;;;;;11.20;5.50;;;;;;;4.22;68.49;98115.60;233313;1193;139204;-71
2023/01/30 22:03:15;;;;;;;12.00;5.80;;;;;;;4.17;68.82;98119.07;232297;1193;138438;-72
2023/01/30 22:08:18;;;;;;;9.10;5.50;;;;;;;4.20;68.49;98118.70;233030;1196;139960;-70
2023/01/30 22:13:21;;;;;;;9.40;5.00;;;;;;;4.15;68.90;98121.06;234023;1197;138425;-69
2023/01/30 22:18:25;;;;;;;11.30;5.80;;;;;;;4.10;68.81;98136.09;233332;1196;138264;-71
2023/01/30 22:23:36;;;;;;;12.40;5.10;;;;;;;4.08;69.13;98150.08;233832;1193;139369;-70
2023/01/30 22:28:40;;;;;;;9.20;4.50;;;;;;;4.12;69.04;98154.59;233648;1193;139066;-70
2023/01/30 22:33:50;;;;;;;9.50;4.80;;;;;;;4.24;69.10;98159.94;233219;1193;139033;-70
2023/01/30 22:38:54;;;;;;;8.00;4.60;;;;;;;4.33;68.97;98172.33;231811;1198;138257;-69
2023/01/30 22:43:58;;;;;;;9.00;5.60;;;;;;;4.33;68.57;98179.48;232183;1193;138381;-69
2023/01/30 22:49:04;;;;;;;10.20;6.30;;;;;;;4.35;68.73;98186.08;230325;1197;139239;-70
2023/01/30 22:54:14;;;;;;;13.50;6.70;;;;;;;4.35;68.48;98183.08;232580;1193;138756;-71
2023/01/30 22:59:18;;;;;;;12.60;6.10;;;;;;;4.34;68.69;98186.65;231234;1194;138343;-69
2023/01/30 23:04:22;;;;;;;11.50;5.40;;;;;;;4.31;68.87;98189.09;233988;1193;139193;-69
2023/01/30 23:09:25;;;;;;;10.50;5.80;;;;;;;4.29;68.98;98188.87;233759;1194;139305;-70
2023/01/30 23:14:29;;;;;;;14.60;6.30;;;;;;;4.31;68.97;98191.38;234711;1193;139392;-70
2023/01/30 23:19:32;;;;;;;11.90;6.50;;;;;;;4.38;68.59;98189.09;235079;1197;139158;-70
2023/01/30 23:24:35;;;;;;;14.10;6.70;;;;;;;4.34;68.45;98185.24;235388;1194;138212;-71
2023/01/30 23:29:38;;;;;;;12.80;7.20;;;;;;;4.22;68.46;98197.77;235148;1193;138987;-70
2023/01/30 23:34:42;;;;;;;10.90;6.00;;;;;;;4.16;68.76;98206.70;234101;1194;138357;-70
2023/01/30 23:39:45;;;;;;;10.90;6.30;;;;;;;4.15;68.81;98206.23;232694;1192;138432;-70
2023/01/30 23:44:51;;;;;;;14.30;5.80;;;;;;;4.14;68.66;98209.61;232636;1192;138532;-70
2023/01/30 23:49:55;;;;;;;13.60;5.90;;;;;;;4.17;68.51;98209.12;235582;1194;139170;-71